events-overview

Kinetic Half

 

Overall Female

Lake Anna State Park 4/21/2007 09:00AM

** Results are for the private use of participants and are the Intellectual Property of Set Up Events. Unauthorized use of these results is prohibited.

Place Age Cat. NAME CITY/STATE Rank SWIM Rank T1 Rank BIKE Rank T2 Rank RUN PENALTY TIME DQ
138 JULIE GIBBONSFAIRFAX VA2200:26:281700:03:12202:35:08300:01:16101:43:24 04:49:26 
240 JACQUELINE MILLERHOLLY SPRINGS NC1100:22:31100:01:151102:53:57100:00:53201:46:09 05:04:44Y
327 SUZY MCCULLOCHELLICOTT CITY MD800:21:391300:02:55402:44:291700:01:50501:52:0300:04:0005:06:54 
433 JESSICA MOWREYVIRGINIA BEACH VA1800:24:323100:04:13802:51:001900:01:51401:51:26 05:13:00 
549 CONNIE MAXWELLNEWPORT NEWS VA400:19:23400:02:06902:52:012400:02:121001:58:09 05:13:49Y
628EFJULIE LESTYANVIRGINIA BEACH VA700:21:37600:02:14602:49:20600:01:261402:04:17 05:18:52 
726 LAURA SUAREZPHILADELPHIA PA    1202:54:01500:01:22801:54:11 05:20:04 
839 JANNA MILLERFAIRBANKS AK1300:23:311100:02:381703:00:23800:01:30601:52:47 05:20:47 
950 CRISSY FUENTESANNAPOLIS MD200:16:35200:01:251402:56:19900:01:301802:07:28 05:23:16Y
1030 ALLISON CHAPPLEWINSTON-SALEM NC3600:28:471600:03:07502:48:24400:01:191302:03:06 05:24:41 
1127 JENNIFER LASTFOGELLELAND NC500:21:241000:02:361603:00:222100:02:051202:03:06 05:29:30 
1237 KRISTEN ASTORWASHINGTON DC           05:32:16Y
1333 MELISSA DAVIDIANRALEIGH NC4400:30:294600:05:412203:03:162500:02:12701:53:47 05:35:23 
1437 ROBIN MARTZARLINGTON VA4500:30:424200:05:242803:07:43700:01:29301:50:29 05:35:45 
1537 JEAN MCGINLEYARLINGTON VA4100:29:401800:03:17       05:40:19 
1645 RENEE ADAMSMANASSAS VA2500:27:395200:06:231302:56:014000:03:071502:04:5700:04:0005:42:05 
1731 MICHELLE PRENDERGASTWOODBRIDGE VA1900:24:351500:03:071503:00:072000:01:512802:16:41 05:46:19 
1826MCDELNORA ERICKSONBETHESDA MD3700:28:533500:04:471903:01:341800:01:502102:10:54 05:47:56 
1947 JULIE CAPRIOBALTIMORE MD2100:26:245400:06:472103:02:194900:03:412402:13:28 05:52:38 
2043 MARY ELLEN HASELDENSTAFFORD VA2700:27:464300:05:292903:09:351000:01:312002:09:43 05:54:02 
2125 KARLA MASLOWCHARLOTTESVILLE VA100:16:182100:03:223503:13:063300:02:402902:17:0200:04:0005:56:25Y
2239 AMY BUEHRLECARY NC5900:38:541200:02:542703:07:251200:01:331902:07:45 05:58:28 
2338 HARRIS MELBYFREDERICK MD1600:23:482500:03:392503:04:34200:01:143402:25:18 05:58:33 
2422 KIRSTEN MELANDERBLACKSBURG VA2000:25:182000:03:202603:06:556000:08:502602:15:55 06:00:16Y
2534 REBECCA MATTEODURHAM NC6100:39:412900:04:07702:50:333600:02:453602:27:21 06:04:26 
2630 TANYA BRENNANARLINGTON VA6400:44:153600:04:491803:01:071600:01:462302:13:14 06:05:10 
2726MCBROOKE SCIUTONORTH BETHESDA MD5800:38:265600:07:133103:09:515500:04:261702:07:06 06:07:00 
2839 CHRISTINE HANNINGWAKE FOREST NC3400:28:304100:05:212303:03:232300:02:093702:28:56 06:08:18 
2939 ALISON MANNINGSOUTHERN PINES NC5200:31:296500:11:353303:11:084100:03:123002:17:09 06:14:31 
3048 PAULINE GREGORYVESTAL NY    3603:13:371100:01:324402:35:55 06:15:21Y
PlaceAgeCat.NAMECITY/STATERankSWIMRankT1RankBIKERankT2RankRUNPENALTYTIMEDQ
3135 KATI DERRICKROANOKE VA3200:28:254700:05:424003:21:362200:02:093202:18:09 06:16:00 
3241 HARRIET FINKLEROCKVILLE MD2900:28:012300:03:314103:23:574300:03:183102:17:39 06:16:24Y
3328 BRITTANY HOTTMECHANICSVILLE VA6000:39:073700:04:495503:34:252600:02:13901:57:50 06:18:23 
3431AJEN MARQUARDTFALLS CHURCH VA1500:23:453200:04:364803:29:291400:01:363302:19:31 06:18:55 
3539 ANNIE KIRKLANDARLINGTON VA300:18:54300:01:315903:40:471300:01:342702:16:13 06:18:57Y
3630 KERRI KRAMERVIENNA VA3500:28:385700:07:132403:03:442800:02:244802:38:03 06:20:01 
3735 KARYN LONGAPEX NC5700:35:003800:04:562003:01:492700:02:174702:37:19 06:21:18 
3822 CAROLINE BROCHUANNAPOLIS MD5300:31:524800:05:424503:28:535700:05:192502:13:31 06:25:16 
3940 APRIL COLESCOTTWINSTON-SALEM NC6300:42:355300:06:32302:43:085600:04:565202:44:1000:04:0006:25:19Y
4032 KATHY BAUERHERDON VA4800:31:053900:05:023803:17:003900:03:003802:29:35 06:25:40 
4129 HOLLY O'CONNOR 4300:30:205900:07:386403:46:304800:03:311101:59:55 06:27:52 
4227 DANIELLA HIRSCHFELDDURHAM NC6200:41:356300:09:453903:20:135300:04:152202:13:14 06:28:59 
4326AKIM LARSONALEXANDRIA VA3800:29:21800:02:293003:09:373000:02:335502:48:07 06:32:05Y
4431 LAUREN DARIENZOLONG BEACH NY6500:48:475000:06:184703:29:273500:02:421602:05:54 06:33:05 
4536 JULIETTE FUSIARSKAROCKVILLE MD5600:34:582800:04:023703:15:572900:02:274902:38:45 06:36:06 
4628 ALISA RHEEARLINGTON VA4600:30:546200:08:504203:25:405200:04:144002:30:20 06:39:55 
4727 SANDRA BUCHHEISTERHAMPTON VA3100:28:074000:05:185003:31:203400:02:414102:33:13 06:40:38 
4845 LINDA RUMSEYFAIRFAX VA3000:28:052700:03:535703:37:313200:02:343902:30:10 06:42:11Y
4933 CATHERINE JONESARLINGTON VA2400:27:135100:06:234603:29:143700:02:554602:37:11 06:42:55 
5047 PATRICIA CLIFFORDROCKVILLE MD5100:31:215800:07:284303:26:055100:04:084302:35:31 06:44:31 
5141 CAROL SHUFORDBETHESDA MD5000:31:132200:03:256003:41:155400:04:213502:27:18 06:47:31Y
5235 ELIZABETH BARTONMCLEAN VA900:22:091900:03:195203:32:464400:03:195402:46:28 06:47:59Y
5331 HELEN HONEYWELLRESTON VA1000:22:11700:02:175803:37:391500:01:365302:44:18 06:47:59Y
5438 JOANNA IP DURIEALEXANDRIA VA4700:31:024900:06:085103:32:283800:02:594502:36:30 06:49:05 
5528 JENNIFER STEWARTWASHINGTON DC5500:34:296000:07:485303:32:595000:03:445002:38:55 06:57:53 
5629AKATHRYN MOOREARLINGTON VA2600:27:394400:05:316303:45:094200:03:125102:39:53 07:01:22 
5751 PAMELA COLEMANWASHINGTON DC5400:32:396400:10:316103:42:265800:05:224202:34:09 07:05:06 
5839 JILL RHODESALEXANDRIA VA4900:31:122400:03:335403:34:104600:03:275702:53:35 07:05:56Y
5930 KRISTIN WEDEMEYERASHBURN VA2300:27:114500:05:355603:35:453100:02:345803:08:30 07:19:34 
6024 VERONIQUE SCHAFFRATHANNANDALE VA4200:29:475500:06:556203:44:175900:06:305602:52:31 07:19:59 
6126 KATHRYN SANCHEZARLINGTON VA3300:28:306100:08:354903:29:394500:03:255903:15:41 07:25:48 
PlaceAgeCat.NAMECITY/STATERankSWIMRankT1RankBIKERankT2RankRUNPENALTYTIMEDQ
6229 TRACEY FLANAGANARLINGTON VA2800:27:572600:03:413403:11:134700:03:29    Y
6327ANICOLE ROBBINSNEWPORT NEWS VA3900:29:251400:02:56102:20:53      Y
6441UFBETSY BUTLERFREDERICKSBURG VA600:21:243400:04:391002:52:09       
6529UFKATHLEEN DAVISONRESTON VA1400:23:44500:02:103203:10:27      Y
6647UFSTEPHANIE COLBURNASHBURN VA4000:29:383300:04:384403:27:57       
6748 KAREN GARTHALEXANDRIA VA1700:23:50900:02:31        Y
6845 ANDREA WAGNERRICHMOND VA1200:22:583000:04:12         

** Results are for the private use of participants and are the Intellectual Property of Set Up Events. Unauthorized use of these results is prohibited.